Time;durP1;ratioP1;P1;durP2;ratioP2;P2;SDS_P1;SDS_P2;PMS_P1;PMS_P2;Temp;Humidity;BMP_temperature;BMP_pressure;BME280_temperature;BME280_humidity;BME280_pressure;Samples;Min_cycle;Max_cycle;Signal;HPM_P1;HPM_P2
2023/12/26 00:00:12;;;;;;;3.27;1.43;;;;;;;;;;5073209;28;20460;-60
2023/12/26 00:02:39;;;;;;;1.93;1.67;;;;;;;;;;5072478;28;20535;-61
2023/12/26 00:05:07;;;;;;;1.83;1.50;;;;;;;;;;5075514;28;20927;-60
2023/12/26 00:07:34;;;;;;;1.87;1.60;;;;;;;;;;5076846;28;20546;-60
2023/12/26 00:10:01;;;;;;;3.50;1.20;;;;;;;;;;5076810;28;20854;-60
2023/12/26 00:12:28;;;;;;;1.33;1.20;;;;;;;;;;5076641;28;20534;-60
2023/12/26 00:14:55;;;;;;;3.37;1.70;;;;;;;;;;5076556;28;20456;-60
2023/12/26 00:17:22;;;;;;;1.30;1.20;;;;;;;;;;5076413;28;20579;-61
2023/12/26 00:19:49;;;;;;;2.93;1.30;;;;;;;;;;5076561;28;20447;-60
2023/12/26 00:22:18;;;;;;;1.10;1.00;;;;;;;;;;5076382;28;21070;-60
2023/12/26 00:24:45;;;;;;;2.90;1.53;;;;;;;;;;5076293;28;20998;-61
2023/12/26 00:27:12;;;;;;;1.73;1.60;;;;;;;;;;5076301;28;20447;-60
2023/12/26 00:29:39;;;;;;;3.33;1.50;;;;;;;;;;5076142;28;20497;-61
2023/12/26 00:32:06;;;;;;;1.10;1.00;;;;;;;;;;5076384;28;20479;-60
2023/12/26 00:34:33;;;;;;;1.10;1.00;;;;;;;;;;5076351;28;21006;-60
2023/12/26 00:37:00;;;;;;;2.33;1.17;;;;;;;;;;5076155;28;20474;-61
2023/12/26 00:39:28;;;;;;;1.93;1.00;;;;;;;;;;5076103;28;20546;-60
2023/12/26 00:41:55;;;;;;;1.20;1.03;;;;;;;;;;5076012;28;20538;-60
2023/12/26 00:44:22;;;;;;;1.30;1.00;;;;;;;;;;5075851;28;20884;-60
2023/12/26 00:46:49;;;;;;;2.77;1.20;;;;;;;;;;5076124;28;20501;-60
2023/12/26 00:49:16;;;;;;;1.37;1.20;;;;;;;;;;5076049;28;20879;-60
2023/12/26 00:51:43;;;;;;;1.60;1.03;;;;;;;;;;5076145;28;20531;-61
2023/12/26 00:54:10;;;;;;;1.10;1.00;;;;;;;;;;5075665;28;20799;-61
2023/12/26 00:56:38;;;;;;;4.10;1.27;;;;;;;;;;5075685;28;20513;-61
2023/12/26 00:59:05;;;;;;;1.30;1.13;;;;;;;;;;5076152;28;20535;-61
2023/12/26 01:01:32;;;;;;;1.20;1.00;;;;;;;;;;5075842;28;20538;-60
2023/12/26 01:03:59;;;;;;;1.70;0.90;;;;;;;;;;5075768;28;20443;-60
2023/12/26 01:06:25;;;;;;;1.37;1.00;;;;;;;;;;5075632;28;20546;-60
2023/12/26 01:08:52;;;;;;;2.37;0.90;;;;;;;;;;5075552;28;20984;-61
2023/12/26 01:11:19;;;;;;;1.20;1.10;;;;;;;;;;5075422;28;20450;-61
2023/12/26 01:13:47;;;;;;;1.10;1.00;;;;;;;;;;5075584;28;20440;-61
2023/12/26 01:16:14;;;;;;;0.83;0.83;;;;;;;;;;5075102;28;20474;-61
2023/12/26 01:18:41;;;;;;;1.00;0.90;;;;;;;;;;5075532;28;20885;-61
2023/12/26 01:21:08;;;;;;;1.57;1.20;;;;;;;;;;5075395;28;20450;-60
2023/12/26 01:23:35;;;;;;;1.70;1.30;;;;;;;;;;5075265;28;20505;-60
2023/12/26 01:26:02;;;;;;;1.00;0.90;;;;;;;;;;5075191;28;20448;-61
2023/12/26 01:28:29;;;;;;;2.00;1.10;;;;;;;;;;5075361;28;20845;-60
2023/12/26 01:30:57;;;;;;;2.20;1.03;;;;;;;;;;5075251;28;20530;-61
2023/12/26 01:33:24;;;;;;;1.00;0.90;;;;;;;;;;5075151;28;20444;-61
2023/12/26 01:35:51;;;;;;;1.43;0.70;;;;;;;;;;5074973;28;21006;-60
2023/12/26 01:38:18;;;;;;;0.87;0.87;;;;;;;;;;5074837;28;20483;-61
2023/12/26 01:40:45;;;;;;;0.70;0.63;;;;;;;;;;5074878;28;20534;-60
2023/12/26 01:43:12;;;;;;;0.90;0.80;;;;;;;;;;5075105;28;20481;-60
2023/12/26 01:45:39;;;;;;;0.70;0.70;;;;;;;;;;5074943;28;20448;-60
2023/12/26 01:48:08;;;;;;;0.70;0.60;;;;;;;;;;5074858;28;20450;-61
2023/12/26 01:50:35;;;;;;;0.80;0.70;;;;;;;;;;5074767;28;20539;-60
2023/12/26 01:53:02;;;;;;;0.80;0.70;;;;;;;;;;5074618;28;20538;-61
2023/12/26 01:55:30;;;;;;;0.97;0.87;;;;;;;;;;5074457;28;20562;-60
2023/12/26 01:57:57;;;;;;;1.33;0.60;;;;;;;;;;5074704;28;20483;-60
2023/12/26 02:00:24;;;;;;;0.70;0.60;;;;;;;;;;5074486;28;20945;-61
2023/12/26 02:02:52;;;;;;;0.80;0.80;;;;;;;;;;5074752;28;20453;-61
2023/12/26 02:05:20;;;;;;;0.70;0.50;;;;;;;;;;5074519;28;20475;-61
2023/12/26 02:07:47;;;;;;;1.00;0.70;;;;;;;;;;5074341;28;20526;-60
2023/12/26 02:10:15;;;;;;;0.87;0.73;;;;;;;;;;5074661;28;20440;-60
2023/12/26 02:12:43;;;;;;;1.17;0.70;;;;;;;;;;5074378;28;20436;-60
2023/12/26 02:15:10;;;;;;;0.70;0.60;;;;;;;;;;5074613;28;20444;-60
2023/12/26 02:17:37;;;;;;;0.80;0.70;;;;;;;;;;5074150;28;20570;-60
2023/12/26 02:20:04;;;;;;;0.73;0.60;;;;;;;;;;5074232;28;20545;-61
2023/12/26 02:22:33;;;;;;;0.80;0.70;;;;;;;;;;5074328;28;20471;-61
2023/12/26 02:25:01;;;;;;;0.80;0.73;;;;;;;;;;5074252;28;20448;-60
2023/12/26 02:27:29;;;;;;;0.70;0.70;;;;;;;;;;5073214;28;20543;-61
2023/12/26 02:29:58;;;;;;;1.20;1.00;;;;;;;;;;5074039;28;20603;-60
2023/12/26 02:32:27;;;;;;;1.57;1.07;;;;;;;;;;5073939;28;20447;-60
2023/12/26 02:34:55;;;;;;;1.73;1.10;;;;;;;;;;5073797;28;20883;-61
2023/12/26 02:37:23;;;;;;;1.00;1.00;;;;;;;;;;5073927;28;20566;-60
2023/12/26 02:39:50;;;;;;;1.17;1.07;;;;;;;;;;5073862;28;20481;-60
2023/12/26 02:42:19;;;;;;;1.20;1.10;;;;;;;;;;5073768;28;20526;-60
2023/12/26 02:44:46;;;;;;;1.30;1.20;;;;;;;;;;5073708;28;20996;-61
2023/12/26 02:47:13;;;;;;;1.30;1.20;;;;;;;;;;5073507;28;21104;-60
2023/12/26 02:49:40;;;;;;;1.17;1.07;;;;;;;;;;5073704;28;20629;-61
2023/12/26 02:52:07;;;;;;;1.00;0.90;;;;;;;;;;5073687;28;20439;-60
2023/12/26 02:54:34;;;;;;;1.50;1.40;;;;;;;;;;5073403;28;20654;-60
2023/12/26 02:57:01;;;;;;;1.50;1.10;;;;;;;;;;5073408;28;20560;-60
2023/12/26 02:59:29;;;;;;;1.40;1.30;;;;;;;;;;5073398;28;20450;-60
2023/12/26 03:01:57;;;;;;;1.40;1.30;;;;;;;;;;5073292;28;20450;-60
2023/12/26 03:04:26;;;;;;;1.40;1.30;;;;;;;;;;5073532;28;20486;-60
2023/12/26 03:06:52;;;;;;;1.20;1.03;;;;;;;;;;5073466;28;20505;-61
2023/12/26 03:09:19;;;;;;;1.40;1.00;;;;;;;;;;5073295;28;20810;-61
2023/12/26 03:11:46;;;;;;;1.40;1.30;;;;;;;;;;5073306;28;20475;-60
2023/12/26 03:14:13;;;;;;;1.40;1.30;;;;;;;;;;5073437;28;20945;-61
2023/12/26 03:16:42;;;;;;;1.20;1.00;;;;;;;;;;5073139;28;20931;-60
2023/12/26 03:19:09;;;;;;;1.70;0.90;;;;;;;;;;5073192;28;20484;-60
2023/12/26 03:21:35;;;;;;;1.20;1.00;;;;;;;;;;5073228;28;20447;-61
2023/12/26 03:24:02;;;;;;;1.43;1.10;;;;;;;;;;5073128;28;20443;-61
2023/12/26 03:26:29;;;;;;;1.97;1.00;;;;;;;;;;5073117;28;20450;-60
2023/12/26 03:28:56;;;;;;;0.83;0.83;;;;;;;;;;5072918;28;20539;-60
2023/12/26 03:31:23;;;;;;;1.17;1.07;;;;;;;;;;5072962;28;20539;-61
2023/12/26 03:33:51;;;;;;;0.80;0.80;;;;;;;;;;5073282;28;20885;-60
2023/12/26 03:36:18;;;;;;;0.80;0.77;;;;;;;;;;5072984;28;20444;-61
2023/12/26 03:38:45;;;;;;;0.90;0.90;;;;;;;;;;5072816;28;21027;-60
2023/12/26 03:41:12;;;;;;;1.20;1.10;;;;;;;;;;5073010;28;20497;-61
2023/12/26 03:43:40;;;;;;;1.00;0.90;;;;;;;;;;5073152;28;20439;-61
2023/12/26 03:46:07;;;;;;;1.00;0.80;;;;;;;;;;5073021;28;20447;-61
2023/12/26 03:48:34;;;;;;;0.70;0.70;;;;;;;;;;5072799;28;20946;-60
2023/12/26 03:51:02;;;;;;;1.53;0.70;;;;;;;;;;5073082;28;20443;-60
2023/12/26 03:53:29;;;;;;;0.90;0.70;;;;;;;;;;5072761;28;20479;-61
2023/12/26 03:55:56;;;;;;;0.70;0.70;;;;;;;;;;5072730;28;20552;-61
2023/12/26 03:58:23;;;;;;;1.30;0.70;;;;;;;;;;5072813;28;20481;-60
2023/12/26 04:00:50;;;;;;;0.60;0.60;;;;;;;;;;5072575;28;20886;-60
2023/12/26 04:03:17;;;;;;;1.17;0.80;;;;;;;;;;5072763;28;20531;-61
2023/12/26 04:05:44;;;;;;;1.53;0.60;;;;;;;;;;5073003;28;20443;-61
2023/12/26 04:08:12;;;;;;;0.73;0.60;;;;;;;;;;5072575;28;20534;-60
2023/12/26 04:10:39;;;;;;;0.60;0.50;;;;;;;;;;5072478;28;20581;-61
2023/12/26 04:13:06;;;;;;;0.60;0.50;;;;;;;;;;5072953;28;20535;-61
2023/12/26 04:15:33;;;;;;;0.60;0.50;;;;;;;;;;5072690;28;20475;-60
2023/12/26 04:18:00;;;;;;;0.60;0.53;;;;;;;;;;5072542;28;20474;-61
2023/12/26 04:20:27;;;;;;;1.43;0.70;;;;;;;;;;5072519;28;20550;-60
2023/12/26 04:22:53;;;;;;;0.50;0.40;;;;;;;;;;5072443;28;20443;-61
2023/12/26 04:25:22;;;;;;;0.60;0.47;;;;;;;;;;5072415;28;20454;-61
2023/12/26 04:27:49;;;;;;;0.50;0.40;;;;;;;;;;5072616;28;20451;-60
2023/12/26 04:30:17;;;;;;;0.60;0.50;;;;;;;;;;5072579;28;20538;-60
2023/12/26 04:32:44;;;;;;;0.90;0.50;;;;;;;;;;5072466;28;20443;-61
2023/12/26 04:35:11;;;;;;;0.60;0.50;;;;;;;;;;5072401;28;20814;-60
2023/12/26 04:37:38;;;;;;;0.90;0.60;;;;;;;;;;5072221;28;20476;-61
2023/12/26 04:40:05;;;;;;;0.60;0.40;;;;;;;;;;5072464;28;20526;-60
2023/12/26 04:42:34;;;;;;;0.60;0.53;;;;;;;;;;5072632;28;20486;-61
2023/12/26 04:45:01;;;;;;;0.70;0.40;;;;;;;;;;5072331;28;20439;-61
2023/12/26 04:47:29;;;;;;;0.60;0.50;;;;;;;;;;5072351;28;20453;-61
2023/12/26 04:49:56;;;;;;;0.60;0.60;;;;;;;;;;5072846;28;20443;-60
2023/12/26 04:52:23;;;;;;;0.60;0.50;;;;;;;;;;5075867;28;20534;-60
2023/12/26 04:54:50;;;;;;;1.20;0.50;;;;;;;;;;5075820;28;20549;-60
2023/12/26 04:57:17;;;;;;;0.70;0.50;;;;;;;;;;5075875;28;20451;-60
2023/12/26 04:59:45;;;;;;;0.60;0.50;;;;;;;;;;5075884;28;20902;-61
2023/12/26 05:02:13;;;;;;;2.10;0.50;;;;;;;;;;5076107;28;20488;-61
2023/12/26 05:04:40;;;;;;;0.60;0.50;;;;;;;;;;5075578;28;20905;-61
2023/12/26 05:07:08;;;;;;;0.50;0.50;;;;;;;;;;5075880;28;20550;-60
2023/12/26 05:09:35;;;;;;;0.97;0.53;;;;;;;;;;5075834;28;20455;-60
2023/12/26 05:12:02;;;;;;;0.87;0.57;;;;;;;;;;5075592;28;20498;-61
2023/12/26 05:14:29;;;;;;;0.60;0.40;;;;;;;;;;5075564;28;20447;-60
2023/12/26 05:16:57;;;;;;;0.70;0.50;;;;;;;;;;5075700;28;20440;-60
2023/12/26 05:19:24;;;;;;;0.60;0.50;;;;;;;;;;5075199;28;20536;-61
2023/12/26 05:21:52;;;;;;;1.00;0.70;;;;;;;;;;5075500;28;20443;-60
2023/12/26 05:24:19;;;;;;;0.60;0.53;;;;;;;;;;5075469;28;20479;-60
2023/12/26 05:26:46;;;;;;;0.70;0.57;;;;;;;;;;5075390;28;20526;-60
2023/12/26 05:29:13;;;;;;;0.50;0.40;;;;;;;;;;5075274;28;20534;-60
2023/12/26 05:31:40;;;;;;;0.80;0.70;;;;;;;;;;5075114;28;20445;-61
2023/12/26 05:34:08;;;;;;;0.60;0.50;;;;;;;;;;5075378;28;20572;-61
2023/12/26 05:36:36;;;;;;;0.60;0.50;;;;;;;;;;5075060;28;20947;-61
2023/12/26 05:39:03;;;;;;;0.60;0.50;;;;;;;;;;5075087;28;20537;-61
2023/12/26 05:41:30;;;;;;;0.70;0.60;;;;;;;;;;5075098;28;20439;-60
2023/12/26 05:43:57;;;;;;;0.60;0.50;;;;;;;;;;5074980;28;20530;-60
2023/12/26 05:46:29;;;;;;;0.60;0.40;;;;;;;;;;5074797;28;20537;-61
2023/12/26 05:48:55;;;;;;;0.60;0.47;;;;;;;;;;5075077;28;20447;-61
2023/12/26 05:51:24;;;;;;;0.70;0.50;;;;;;;;;;5074916;28;20450;-60
2023/12/26 05:53:51;;;;;;;0.63;0.50;;;;;;;;;;5074777;28;20538;-60
2023/12/26 05:56:17;;;;;;;0.80;0.60;;;;;;;;;;5074729;28;20977;-60
2023/12/26 05:58:44;;;;;;;0.70;0.50;;;;;;;;;;5074578;28;20577;-61
2023/12/26 06:01:12;;;;;;;0.60;0.50;;;;;;;;;;5073747;28;20531;-60
2023/12/26 06:03:39;;;;;;;0.80;0.60;;;;;;;;;;5074319;28;20538;-60
2023/12/26 06:06:06;;;;;;;0.80;0.60;;;;;;;;;;5074745;28;20445;-60
2023/12/26 06:08:34;;;;;;;0.60;0.50;;;;;;;;;;5074358;28;20534;-60
2023/12/26 06:11:01;;;;;;;0.60;0.50;;;;;;;;;;5074373;28;20447;-60
2023/12/26 06:13:28;;;;;;;0.70;0.50;;;;;;;;;;5074171;28;20450;-61
2023/12/26 06:15:55;;;;;;;0.70;0.57;;;;;;;;;;5074470;28;20478;-60
2023/12/26 06:18:22;;;;;;;0.63;0.50;;;;;;;;;;5074275;28;20536;-60
2023/12/26 06:20:49;;;;;;;0.60;0.40;;;;;;;;;;5074485;28;20527;-61
2023/12/26 06:23:16;;;;;;;0.60;0.50;;;;;;;;;;5074153;28;20443;-61
2023/12/26 06:25:46;;;;;;;0.80;0.40;;;;;;;;;;5074117;28;20910;-60
2023/12/26 06:28:12;;;;;;;0.67;0.47;;;;;;;;;;5074230;28;20947;-61
2023/12/26 06:30:39;;;;;;;0.70;0.50;;;;;;;;;;5074120;28;20498;-60
2023/12/26 06:33:06;;;;;;;0.60;0.50;;;;;;;;;;5074074;28;20450;-60
2023/12/26 06:35:33;;;;;;;0.60;0.50;;;;;;;;;;5073952;28;20889;-61
2023/12/26 06:38:00;;;;;;;0.67;0.60;;;;;;;;;;5073842;28;20534;-61
2023/12/26 06:40:27;;;;;;;0.97;0.50;;;;;;;;;;5073747;28;20754;-61
2023/12/26 06:42:55;;;;;;;1.10;0.47;;;;;;;;;;5073961;28;20475;-61
2023/12/26 06:45:22;;;;;;;0.50;0.40;;;;;;;;;;5073822;28;20443;-60
2023/12/26 06:47:49;;;;;;;0.97;0.50;;;;;;;;;;5073976;28;20531;-61
2023/12/26 06:50:16;;;;;;;0.70;0.40;;;;;;;;;;5073692;28;20479;-61
2023/12/26 06:52:43;;;;;;;0.50;0.40;;;;;;;;;;5073586;28;20447;-61
2023/12/26 06:55:10;;;;;;;0.60;0.40;;;;;;;;;;5073283;28;20559;-60
2023/12/26 06:57:37;;;;;;;0.50;0.40;;;;;;;;;;5073759;28;20479;-60
2023/12/26 07:00:06;;;;;;;0.63;0.60;;;;;;;;;;5073502;28;20479;-60
2023/12/26 07:02:34;;;;;;;0.50;0.40;;;;;;;;;;5073508;28;20870;-61
2023/12/26 07:05:01;;;;;;;1.00;0.60;;;;;;;;;;5073448;28;20471;-60
2023/12/26 07:07:28;;;;;;;0.50;0.40;;;;;;;;;;5073276;28;20538;-61
2023/12/26 07:09:55;;;;;;;0.60;0.50;;;;;;;;;;5073521;28;20448;-60
2023/12/26 07:12:22;;;;;;;0.60;0.50;;;;;;;;;;5073170;28;20435;-61
2023/12/26 07:14:48;;;;;;;0.60;0.50;;;;;;;;;;5073123;28;20942;-61
2023/12/26 07:17:17;;;;;;;0.60;0.50;;;;;;;;;;5073257;28;20478;-60
2023/12/26 07:19:44;;;;;;;0.53;0.40;;;;;;;;;;5073115;28;20566;-60
2023/12/26 07:22:10;;;;;;;0.60;0.40;;;;;;;;;;5073011;28;20821;-61
2023/12/26 07:24:37;;;;;;;0.60;0.50;;;;;;;;;;5073276;28;20535;-60
2023/12/26 07:27:04;;;;;;;1.43;0.50;;;;;;;;;;5073244;28;20446;-60
2023/12/26 07:29:31;;;;;;;0.83;0.60;;;;;;;;;;5073158;28;20530;-61
2023/12/26 07:31:58;;;;;;;0.60;0.50;;;;;;;;;;5073108;28;20439;-60
2023/12/26 07:34:26;;;;;;;0.70;0.50;;;;;;;;;;5072945;28;20530;-60
2023/12/26 07:36:53;;;;;;;0.80;0.50;;;;;;;;;;5072869;28;20443;-60
2023/12/26 07:39:20;;;;;;;0.50;0.40;;;;;;;;;;5073004;28;20561;-60
2023/12/26 07:41:47;;;;;;;0.60;0.50;;;;;;;;;;5072881;28;20531;-60
2023/12/26 07:44:14;;;;;;;0.63;0.40;;;;;;;;;;5072924;28;20534;-61
2023/12/26 07:46:42;;;;;;;0.50;0.40;;;;;;;;;;5072873;28;20531;-61
2023/12/26 07:49:09;;;;;;;0.60;0.40;;;;;;;;;;5072754;28;20447;-61
2023/12/26 07:51:38;;;;;;;0.73;0.60;;;;;;;;;;5072677;28;20449;-61
2023/12/26 07:54:05;;;;;;;1.07;0.77;;;;;;;;;;5072755;28;20538;-61
2023/12/26 07:56:32;;;;;;;2.17;0.70;;;;;;;;;;5072869;28;20448;-61
2023/12/26 07:58:59;;;;;;;1.67;1.00;;;;;;;;;;5072413;28;20518;-61
2023/12/26 08:01:26;;;;;;;0.70;0.60;;;;;;;;;;5072763;28;20534;-60
2023/12/26 08:03:53;;;;;;;0.70;0.50;;;;;;;;;;5072606;28;20451;-61
2023/12/26 08:06:20;;;;;;;0.80;0.60;;;;;;;;;;5072712;28;20497;-60
2023/12/26 08:08:49;;;;;;;0.70;0.53;;;;;;;;;;5072559;28;20447;-60
2023/12/26 08:11:15;;;;;;;0.60;0.60;;;;;;;;;;5072673;28;20529;-61
2023/12/26 08:13:42;;;;;;;0.60;0.50;;;;;;;;;;5072535;28;20446;-60
2023/12/26 08:16:09;;;;;;;1.83;0.60;;;;;;;;;;5072579;28;20440;-61
2023/12/26 08:18:36;;;;;;;0.63;0.53;;;;;;;;;;5072332;28;20533;-60
2023/12/26 08:21:04;;;;;;;1.80;0.70;;;;;;;;;;5072454;28;20443;-61
2023/12/26 08:23:31;;;;;;;0.93;0.70;;;;;;;;;;5072535;28;20443;-60
2023/12/26 08:25:59;;;;;;;0.60;0.50;;;;;;;;;;5074957;28;20450;-61
2023/12/26 08:28:26;;;;;;;0.70;0.70;;;;;;;;;;5076372;28;20534;-60
2023/12/26 08:30:53;;;;;;;0.73;0.70;;;;;;;;;;5076131;28;20536;-61
2023/12/26 08:33:20;;;;;;;1.40;1.10;;;;;;;;;;5076029;28;20447;-61
2023/12/26 08:35:47;;;;;;;1.10;0.80;;;;;;;;;;5076597;28;20867;-60
2023/12/26 08:38:13;;;;;;;0.60;0.50;;;;;;;;;;5076095;28;20930;-60
2023/12/26 08:40:41;;;;;;;1.03;0.70;;;;;;;;;;5076060;28;20581;-61
2023/12/26 08:43:09;;;;;;;2.00;0.67;;;;;;;;;;5076103;28;20933;-60
2023/12/26 08:45:36;;;;;;;1.30;1.07;;;;;;;;;;5075706;28;20530;-61
2023/12/26 08:48:03;;;;;;;1.33;0.80;;;;;;;;;;5075598;28;20447;-61
2023/12/26 08:50:30;;;;;;;2.17;1.97;;;;;;;;;;5075450;28;20455;-61
2023/12/26 08:52:57;;;;;;;0.87;0.70;;;;;;;;;;5075410;28;20539;-61
2023/12/26 08:55:24;;;;;;;1.03;0.70;;;;;;;;;;5075104;28;21069;-60
2023/12/26 08:57:51;;;;;;;1.47;0.70;;;;;;;;;;5075324;28;20546;-62
2023/12/26 09:00:20;;;;;;;1.67;0.80;;;;;;;;;;5075675;28;20738;-61
2023/12/26 09:02:47;;;;;;;1.33;0.60;;;;;;;;;;5075252;28;20447;-61
2023/12/26 09:05:14;;;;;;;1.47;0.70;;;;;;;;;;5075281;28;20891;-61
2023/12/26 09:07:41;;;;;;;5.97;1.00;;;;;;;;;;5075078;28;20479;-61
2023/12/26 09:10:09;;;;;;;1.83;0.70;;;;;;;;;;5075039;28;20541;-60
2023/12/26 09:12:36;;;;;;;4.27;1.07;;;;;;;;;;5074854;28;20527;-61
2023/12/26 09:15:02;;;;;;;1.47;0.90;;;;;;;;;;5075062;28;20768;-61
2023/12/26 09:17:31;;;;;;;2.20;1.00;;;;;;;;;;5074915;28;20444;-61
2023/12/26 09:19:58;;;;;;;1.13;0.90;;;;;;;;;;5074765;28;20480;-61
2023/12/26 09:22:25;;;;;;;1.10;1.00;;;;;;;;;;5074747;28;20965;-60
2023/12/26 09:24:52;;;;;;;1.87;0.93;;;;;;;;;;5074598;28;20450;-61
2023/12/26 09:27:19;;;;;;;1.07;0.70;;;;;;;;;;5074543;28;20935;-61
2023/12/26 09:29:46;;;;;;;1.50;0.90;;;;;;;;;;5074579;28;20938;-61
2023/12/26 09:32:13;;;;;;;1.10;1.00;;;;;;;;;;5074627;28;20444;-60
2023/12/26 09:34:41;;;;;;;4.10;0.90;;;;;;;;;;5074630;28;20443;-61
2023/12/26 09:37:08;;;;;;;1.47;0.77;;;;;;;;;;5074291;28;20852;-61
2023/12/26 09:39:35;;;;;;;1.37;0.80;;;;;;;;;;5074291;28;20574;-61
2023/12/26 09:42:03;;;;;;;1.20;0.80;;;;;;;;;;5074556;28;20555;-61
2023/12/26 09:44:30;;;;;;;4.73;0.90;;;;;;;;;;5074521;28;20997;-61
2023/12/26 09:46:58;;;;;;;2.93;1.27;;;;;;;;;;5074658;28;20453;-61
2023/12/26 09:49:25;;;;;;;1.50;1.40;;;;;;;;;;5074122;28;20961;-61
2023/12/26 09:51:55;;;;;;;1.10;0.80;;;;;;;;;;5074138;28;20483;-61
2023/12/26 09:54:25;;;;;;;1.70;1.00;;;;;;;;;;5074098;28;21044;-61
2023/12/26 09:56:52;;;;;;;1.03;0.93;;;;;;;;;;5073980;28;20899;-60
2023/12/26 09:59:20;;;;;;;2.40;1.50;;;;;;;;;;5074077;28;20503;-61
2023/12/26 10:01:47;;;;;;;2.63;1.00;;;;;;;;;;5074104;28;20534;-61
2023/12/26 10:04:14;;;;;;;2.30;1.60;;;;;;;;;;5074001;28;20888;-61
2023/12/26 10:06:41;;;;;;;2.07;1.00;;;;;;;;;;5073871;28;20526;-61
2023/12/26 10:09:09;;;;;;;3.80;1.53;;;;;;;;;;5073857;28;20448;-61
2023/12/26 10:11:36;;;;;;;3.33;1.07;;;;;;;;;;5073943;28;20807;-61
2023/12/26 10:14:03;;;;;;;3.03;1.90;;;;;;;;;;5073869;28;20435;-61
2023/12/26 10:16:30;;;;;;;1.33;1.20;;;;;;;;;;5073860;28;20439;-61
2023/12/26 10:18:57;;;;;;;5.53;1.17;;;;;;;;;;5073668;28;20957;-60
2023/12/26 10:21:24;;;;;;;2.80;1.07;;;;;;;;;;5073442;28;20570;-61
2023/12/26 10:23:52;;;;;;;3.33;1.10;;;;;;;;;;5073673;28;20775;-60
2023/12/26 10:26:20;;;;;;;1.97;1.40;;;;;;;;;;5073723;28;20558;-61
2023/12/26 10:28:50;;;;;;;1.83;0.90;;;;;;;;;;5073551;28;20482;-61
2023/12/26 10:31:18;;;;;;;3.00;1.00;;;;;;;;;;5073482;28;20493;-61
2023/12/26 10:33:45;;;;;;;3.03;1.50;;;;;;;;;;5073356;28;20875;-61
2023/12/26 10:36:12;;;;;;;1.30;1.00;;;;;;;;;;5073405;28;20436;-60
2023/12/26 10:38:39;;;;;;;4.23;1.60;;;;;;;;;;5073576;28;20462;-61
2023/12/26 10:41:07;;;;;;;2.73;1.77;;;;;;;;;;5073512;28;20901;-60
2023/12/26 10:43:36;;;;;;;2.17;0.90;;;;;;;;;;5073315;28;20444;-61
2023/12/26 10:46:06;;;;;;;1.10;1.00;;;;;;;;;;5073223;28;20441;-60
2023/12/26 10:48:33;;;;;;;4.23;0.90;;;;;;;;;;5072368;28;20493;-61
2023/12/26 10:51:01;;;;;;;4.27;1.27;;;;;;;;;;5073373;28;20530;-61
2023/12/26 10:53:30;;;;;;;2.27;1.53;;;;;;;;;;5073037;28;20974;-60
2023/12/26 10:55:57;;;;;;;3.40;1.37;;;;;;;;;;5073050;28;20775;-60
2023/12/26 10:58:28;;;;;;;5.27;1.47;;;;;;;;;;5073225;28;20531;-60
2023/12/26 11:00:56;;;;;;;4.13;1.30;;;;;;;;;;5073391;28;20552;-61
2023/12/26 11:03:22;;;;;;;6.13;1.43;;;;;;;;;;5073575;28;20466;-61
2023/12/26 11:05:49;;;;;;;4.20;1.30;;;;;;;;;;5073653;28;20463;-60
2023/12/26 11:08:15;;;;;;;2.40;1.03;;;;;;;;;;5073333;28;20896;-61
2023/12/26 11:10:41;;;;;;;2.93;1.20;;;;;;;;;;5073386;28;20550;-61
2023/12/26 11:13:08;;;;;;;2.07;1.50;;;;;;;;;;5073334;28;20495;-60
2023/12/26 11:15:34;;;;;;;3.70;1.50;;;;;;;;;;5073126;28;20538;-61
2023/12/26 11:18:02;;;;;;;4.80;1.27;;;;;;;;;;5073388;28;20483;-61
2023/12/26 11:20:29;;;;;;;3.13;1.20;;;;;;;;;;5073260;28;20612;-60
2023/12/26 11:22:55;;;;;;;3.90;1.77;;;;;;;;;;5073136;28;20551;-61
2023/12/26 11:25:21;;;;;;;2.40;1.40;;;;;;;;;;5073154;28;20491;-60
2023/12/26 11:27:48;;;;;;;5.90;1.27;;;;;;;;;;5072979;28;20498;-61
2023/12/26 11:30:14;;;;;;;3.33;1.87;;;;;;;;;;5072900;28;20473;-61
2023/12/26 11:32:40;;;;;;;5.67;1.77;;;;;;;;;;5072979;28;20455;-60
2023/12/26 11:35:08;;;;;;;3.47;1.00;;;;;;;;;;5072995;28;20455;-60
2023/12/26 11:37:34;;;;;;;3.17;1.70;;;;;;;;;;5073070;28;20534;-61
2023/12/26 11:40:00;;;;;;;4.03;1.20;;;;;;;;;;5072721;28;20570;-61
2023/12/26 11:42:27;;;;;;;1.30;0.97;;;;;;;;;;5072909;28;20466;-61
2023/12/26 11:44:53;;;;;;;4.80;1.47;;;;;;;;;;5072744;28;20878;-61
2023/12/26 11:47:19;;;;;;;4.53;1.83;;;;;;;;;;5072968;28;20455;-60
2023/12/26 11:49:46;;;;;;;2.30;1.63;;;;;;;;;;5072731;28;20460;-60
2023/12/26 11:52:13;;;;;;;4.03;1.20;;;;;;;;;;5072672;28;20539;-60
2023/12/26 11:54:40;;;;;;;3.33;1.50;;;;;;;;;;5072471;28;20573;-60
2023/12/26 11:57:06;;;;;;;1.80;1.27;;;;;;;;;;5072507;28;20487;-61
2023/12/26 11:59:33;;;;;;;3.33;1.10;;;;;;;;;;5074562;28;20534;-61
2023/12/26 12:01:59;;;;;;;2.97;1.27;;;;;;;;;;5077112;28;20469;-61
2023/12/26 12:04:25;;;;;;;1.87;1.10;;;;;;;;;;5076891;28;20469;-60
2023/12/26 12:07:06;;;;;;;4.90;1.77;;;;;;;;;;5076637;28;20450;-61
2023/12/26 12:09:35;;;;;;;3.30;1.60;;;;;;;;;;5076448;28;20451;-61
2023/12/26 12:12:02;;;;;;;3.53;1.60;;;;;;;;;;5076804;28;20526;-61
2023/12/26 12:14:28;;;;;;;3.53;1.10;;;;;;;;;;5076716;28;20856;-61
2023/12/26 12:16:55;;;;;;;4.67;1.17;;;;;;;;;;5076599;28;20544;-60
2023/12/26 12:19:21;;;;;;;2.20;1.30;;;;;;;;;;5076552;28;20600;-61
2023/12/26 12:21:47;;;;;;;4.07;1.10;;;;;;;;;;5076502;28;20490;-61
2023/12/26 12:24:19;;;;;;;5.60;1.60;;;;;;;;;;5076354;28;20455;-61
2023/12/26 12:27:05;;;;;;;4.73;1.10;;;;;;;;;;5076607;28;20447;-60
2023/12/26 12:29:50;;;;;;;2.77;1.03;;;;;;;;;;5076810;28;20838;-60
2023/12/26 12:32:19;;;;;;;3.67;1.27;;;;;;;;;;5076249;28;20445;-60
2023/12/26 12:35:01;;;;;;;4.30;1.27;;;;;;;;;;5076470;28;20458;-61
2023/12/26 12:37:27;;;;;;;4.83;1.10;;;;;;;;;;5076142;28;20558;-60
2023/12/26 12:39:53;;;;;;;4.93;1.30;;;;;;;;;;5076171;28;20481;-61
2023/12/26 12:42:22;;;;;;;2.50;1.20;;;;;;;;;;5076204;28;20455;-60
2023/12/26 12:44:48;;;;;;;3.90;1.20;;;;;;;;;;5076180;28;20771;-61
2023/12/26 12:47:14;;;;;;;2.33;1.23;;;;;;;;;;5075897;28;20505;-61
2023/12/26 12:49:41;;;;;;;1.97;1.17;;;;;;;;;;5076088;28;20466;-60
2023/12/26 12:52:07;;;;;;;5.87;1.10;;;;;;;;;;5075957;28;20534;-61
2023/12/26 12:54:33;;;;;;;6.93;1.63;;;;;;;;;;5075937;28;20562;-61
2023/12/26 12:56:59;;;;;;;3.33;1.33;;;;;;;;;;5075978;28;20549;-60
2023/12/26 12:59:27;;;;;;;4.10;1.43;;;;;;;;;;5075888;28;20533;-60
2023/12/26 13:01:53;;;;;;;5.77;1.50;;;;;;;;;;5075889;28;20566;-60
2023/12/26 13:04:20;;;;;;;1.70;1.33;;;;;;;;;;5075629;28;20459;-60
2023/12/26 13:06:46;;;;;;;3.57;1.80;;;;;;;;;;5075780;28;20995;-60
2023/12/26 13:09:12;;;;;;;3.80;1.43;;;;;;;;;;5075752;28;20478;-60
2023/12/26 13:11:39;;;;;;;2.20;1.27;;;;;;;;;;5075150;28;20814;-61
2023/12/26 13:14:05;;;;;;;2.03;1.80;;;;;;;;;;5075510;28;20877;-60
2023/12/26 13:16:32;;;;;;;5.93;2.03;;;;;;;;;;5075328;28;20487;-60
2023/12/26 13:18:59;;;;;;;1.20;1.00;;;;;;;;;;5075537;28;20542;-61
2023/12/26 13:21:25;;;;;;;2.50;1.10;;;;;;;;;;5075417;28;20529;-60
2023/12/26 13:23:51;;;;;;;6.63;1.73;;;;;;;;;;5075270;28;20459;-60
2023/12/26 13:26:18;;;;;;;2.17;1.03;;;;;;;;;;5075341;28;20459;-60
2023/12/26 13:28:44;;;;;;;2.33;1.30;;;;;;;;;;5075113;28;20534;-61
2023/12/26 13:31:12;;;;;;;1.63;1.20;;;;;;;;;;5075109;28;20877;-61
2023/12/26 13:33:40;;;;;;;4.03;2.27;;;;;;;;;;5075224;28;20491;-60
2023/12/26 13:36:06;;;;;;;3.13;1.47;;;;;;;;;;5075199;28;20539;-61
2023/12/26 13:38:32;;;;;;;3.67;2.97;;;;;;;;;;5075117;28;20546;-61
2023/12/26 13:40:59;;;;;;;2.13;1.17;;;;;;;;;;5074943;28;21010;-61
2023/12/26 13:43:25;;;;;;;4.60;1.30;;;;;;;;;;5074861;28;20568;-61
2023/12/26 13:45:51;;;;;;;2.17;1.00;;;;;;;;;;5075107;28;20543;-61
2023/12/26 13:48:18;;;;;;;2.37;1.20;;;;;;;;;;5074913;28;20542;-60
2023/12/26 13:50:45;;;;;;;2.83;1.63;;;;;;;;;;5074808;28;20444;-61
2023/12/26 13:53:11;;;;;;;2.60;1.23;;;;;;;;;;5074750;28;20815;-60
2023/12/26 13:55:38;;;;;;;2.30;0.90;;;;;;;;;;5074675;28;20570;-61
2023/12/26 13:58:04;;;;;;;2.50;1.10;;;;;;;;;;5074494;28;20447;-61
2023/12/26 14:00:33;;;;;;;3.07;1.30;;;;;;;;;;5074556;28;20558;-60
2023/12/26 14:03:00;;;;;;;3.83;1.30;;;;;;;;;;5074801;28;20534;-60
2023/12/26 14:05:27;;;;;;;3.00;1.10;;;;;;;;;;5074513;28;20534;-61
2023/12/26 14:07:57;;;;;;;6.70;1.40;;;;;;;;;;5074332;28;20475;-61
2023/12/26 14:10:24;;;;;;;3.83;1.40;;;;;;;;;;5074572;28;20807;-61
2023/12/26 14:12:51;;;;;;;3.73;1.20;;;;;;;;;;5074439;28;20452;-61
2023/12/26 14:15:18;;;;;;;2.17;1.00;;;;;;;;;;5074546;28;20534;-61
2023/12/26 14:17:45;;;;;;;5.30;1.20;;;;;;;;;;5074380;28;20534;-60
2023/12/26 14:20:12;;;;;;;2.40;1.83;;;;;;;;;;5074161;28;20471;-61
2023/12/26 14:22:39;;;;;;;2.57;2.30;;;;;;;;;;5073360;28;20536;-60
2023/12/26 14:25:07;;;;;;;7.67;6.07;;;;;;;;;;5074123;28;20444;-61
2023/12/26 14:27:34;;;;;;;6.53;1.40;;;;;;;;;;5074179;28;20534;-60
2023/12/26 14:30:01;;;;;;;1.70;1.60;;;;;;;;;;5073958;28;20534;-61
2023/12/26 14:32:28;;;;;;;4.80;1.40;;;;;;;;;;5073834;28;20934;-61
2023/12/26 14:34:55;;;;;;;1.63;1.10;;;;;;;;;;5074152;28;20534;-60
2023/12/26 14:37:22;;;;;;;3.70;1.37;;;;;;;;;;5073885;28;20561;-60
2023/12/26 14:39:49;;;;;;;5.90;1.27;;;;;;;;;;5073742;28;20534;-60
2023/12/26 14:42:18;;;;;;;2.43;1.23;;;;;;;;;;5073817;28;20513;-61